sensor_id;sensor_type;location;lat;lon;timestamp;P1;durP1;ratioP1;P2;durP2;ratioP2
56730;SDS011;42613;47.424;8.560;2022-12-18T00:01:21;40.47;;;22.17;;
56730;SDS011;42613;47.424;8.560;2022-12-18T00:03:49;41.22;;;22.20;;
56730;SDS011;42613;47.424;8.560;2022-12-18T00:06:16;44.47;;;22.25;;
56730;SDS011;42613;47.424;8.560;2022-12-18T00:08:41;41.58;;;22.42;;
56730;SDS011;42613;47.424;8.560;2022-12-18T00:11:08;49.28;;;23.05;;
56730;SDS011;42613;47.424;8.560;2022-12-18T00:13:35;46.90;;;23.30;;
56730;SDS011;42613;47.424;8.560;2022-12-18T00:16:05;44.45;;;23.50;;
56730;SDS011;42613;47.424;8.560;2022-12-18T00:18:32;43.58;;;21.92;;
56730;SDS011;42613;47.424;8.560;2022-12-18T00:21:02;46.40;;;23.77;;
56730;SDS011;42613;47.424;8.560;2022-12-18T00:23:29;49.40;;;22.60;;
56730;SDS011;42613;47.424;8.560;2022-12-18T00:26:03;36.85;;;21.38;;
56730;SDS011;42613;47.424;8.560;2022-12-18T00:28:34;38.28;;;21.27;;
56730;SDS011;42613;47.424;8.560;2022-12-18T00:31:00;47.70;;;22.58;;
56730;SDS011;42613;47.424;8.560;2022-12-18T00:33:26;49.08;;;24.25;;
56730;SDS011;42613;47.424;8.560;2022-12-18T00:35:52;47.88;;;24.65;;
56730;SDS011;42613;47.424;8.560;2022-12-18T00:38:17;48.13;;;22.73;;
56730;SDS011;42613;47.424;8.560;2022-12-18T00:40:43;40.88;;;20.60;;
56730;SDS011;42613;47.424;8.560;2022-12-18T00:43:08;42.10;;;22.38;;
56730;SDS011;42613;47.424;8.560;2022-12-18T00:45:34;49.15;;;24.67;;
56730;SDS011;42613;47.424;8.560;2022-12-18T00:47:59;46.00;;;23.08;;
56730;SDS011;42613;47.424;8.560;2022-12-18T00:50:24;37.67;;;21.00;;
56730;SDS011;42613;47.424;8.560;2022-12-18T00:52:50;45.40;;;22.42;;
56730;SDS011;42613;47.424;8.560;2022-12-18T00:55:16;49.95;;;24.25;;
56730;SDS011;42613;47.424;8.560;2022-12-18T00:57:42;52.90;;;24.90;;
56730;SDS011;42613;47.424;8.560;2022-12-18T01:00:10;45.25;;;23.35;;
56730;SDS011;42613;47.424;8.560;2022-12-18T01:02:37;41.15;;;23.33;;
56730;SDS011;42613;47.424;8.560;2022-12-18T01:05:03;44.72;;;23.30;;
56730;SDS011;42613;47.424;8.560;2022-12-18T01:07:29;46.17;;;24.42;;
56730;SDS011;42613;47.424;8.560;2022-12-18T01:09:54;50.20;;;25.40;;
56730;SDS011;42613;47.424;8.560;2022-12-18T01:12:23;41.67;;;22.23;;
56730;SDS011;42613;47.424;8.560;2022-12-18T01:14:48;44.72;;;24.15;;
56730;SDS011;42613;47.424;8.560;2022-12-18T01:17:14;39.58;;;23.50;;
56730;SDS011;42613;47.424;8.560;2022-12-18T01:19:39;48.75;;;24.95;;
56730;SDS011;42613;47.424;8.560;2022-12-18T01:22:05;44.90;;;23.95;;
56730;SDS011;42613;47.424;8.560;2022-12-18T01:24:30;45.53;;;23.63;;
56730;SDS011;42613;47.424;8.560;2022-12-18T01:26:55;53.38;;;25.45;;
56730;SDS011;42613;47.424;8.560;2022-12-18T01:29:22;50.47;;;24.17;;
56730;SDS011;42613;47.424;8.560;2022-12-18T01:31:47;46.10;;;25.10;;
56730;SDS011;42613;47.424;8.560;2022-12-18T01:34:13;49.30;;;25.83;;
56730;SDS011;42613;47.424;8.560;2022-12-18T01:36:38;56.22;;;25.35;;
56730;SDS011;42613;47.424;8.560;2022-12-18T01:39:08;54.75;;;25.35;;
56730;SDS011;42613;47.424;8.560;2022-12-18T01:41:36;42.72;;;23.60;;
56730;SDS011;42613;47.424;8.560;2022-12-18T01:47:33;46.20;;;22.70;;
56730;SDS011;42613;47.424;8.560;2022-12-18T01:50:07;45.20;;;23.60;;
56730;SDS011;42613;47.424;8.560;2022-12-18T01:52:35;48.30;;;24.23;;
56730;SDS011;42613;47.424;8.560;2022-12-18T01:55:02;57.15;;;26.15;;
56730;SDS011;42613;47.424;8.560;2022-12-18T01:57:29;49.70;;;25.17;;
56730;SDS011;42613;47.424;8.560;2022-12-18T01:59:57;56.78;;;24.77;;
56730;SDS011;42613;47.424;8.560;2022-12-18T02:02:26;48.78;;;25.05;;
56730;SDS011;42613;47.424;8.560;2022-12-18T02:04:53;48.35;;;24.40;;
56730;SDS011;42613;47.424;8.560;2022-12-18T02:07:21;43.47;;;23.33;;
56730;SDS011;42613;47.424;8.560;2022-12-18T02:12:45;51.25;;;25.83;;
56730;SDS011;42613;47.424;8.560;2022-12-18T02:15:25;48.08;;;25.98;;
56730;SDS011;42613;47.424;8.560;2022-12-18T02:17:59;53.63;;;26.00;;
56730;SDS011;42613;47.424;8.560;2022-12-18T02:20:38;54.85;;;24.42;;
56730;SDS011;42613;47.424;8.560;2022-12-18T02:23:24;49.88;;;24.27;;
56730;SDS011;42613;47.424;8.560;2022-12-18T02:28:57;52.63;;;26.42;;
56730;SDS011;42613;47.424;8.560;2022-12-18T02:31:28;49.83;;;25.23;;
56730;SDS011;42613;47.424;8.560;2022-12-18T02:34:00;48.22;;;24.83;;
56730;SDS011;42613;47.424;8.560;2022-12-18T02:36:29;52.15;;;25.40;;
56730;SDS011;42613;47.424;8.560;2022-12-18T02:38:57;52.85;;;24.92;;
56730;SDS011;42613;47.424;8.560;2022-12-18T02:41:25;48.10;;;24.27;;
56730;SDS011;42613;47.424;8.560;2022-12-18T02:43:57;50.78;;;25.73;;
56730;SDS011;42613;47.424;8.560;2022-12-18T02:49:39;52.42;;;24.73;;
56730;SDS011;42613;47.424;8.560;2022-12-18T03:00:34;47.25;;;24.80;;
56730;SDS011;42613;47.424;8.560;2022-12-18T03:03:10;54.30;;;27.95;;
56730;SDS011;42613;47.424;8.560;2022-12-18T03:05:49;54.60;;;25.20;;
56730;SDS011;42613;47.424;8.560;2022-12-18T03:08:21;51.38;;;25.33;;
56730;SDS011;42613;47.424;8.560;2022-12-18T03:11:02;48.17;;;25.35;;
56730;SDS011;42613;47.424;8.560;2022-12-18T03:13:51;51.37;;;24.43;;
56730;SDS011;42613;47.424;8.560;2022-12-18T03:16:25;56.47;;;26.33;;
56730;SDS011;42613;47.424;8.560;2022-12-18T03:19:04;51.75;;;24.00;;
56730;SDS011;42613;47.424;8.560;2022-12-18T03:21:35;54.67;;;24.50;;
56730;SDS011;42613;47.424;8.560;2022-12-18T03:24:04;57.13;;;28.63;;
56730;SDS011;42613;47.424;8.560;2022-12-18T03:26:33;58.45;;;25.02;;
56730;SDS011;42613;47.424;8.560;2022-12-18T03:29:03;57.95;;;28.10;;
56730;SDS011;42613;47.424;8.560;2022-12-18T03:31:33;52.25;;;25.42;;
56730;SDS011;42613;47.424;8.560;2022-12-18T03:34:02;56.47;;;27.13;;
56730;SDS011;42613;47.424;8.560;2022-12-18T03:36:33;57.03;;;25.95;;
56730;SDS011;42613;47.424;8.560;2022-12-18T03:38:59;54.65;;;25.40;;
56730;SDS011;42613;47.424;8.560;2022-12-18T03:41:31;60.05;;;27.42;;
56730;SDS011;42613;47.424;8.560;2022-12-18T03:44:05;54.63;;;27.02;;
56730;SDS011;42613;47.424;8.560;2022-12-18T03:46:41;56.00;;;24.65;;
56730;SDS011;42613;47.424;8.560;2022-12-18T03:49:19;65.63;;;27.95;;
56730;SDS011;42613;47.424;8.560;2022-12-18T03:52:02;55.63;;;27.58;;
56730;SDS011;42613;47.424;8.560;2022-12-18T03:54:34;61.97;;;26.42;;
56730;SDS011;42613;47.424;8.560;2022-12-18T03:57:03;58.25;;;27.55;;
56730;SDS011;42613;47.424;8.560;2022-12-18T03:59:36;60.97;;;28.45;;
56730;SDS011;42613;47.424;8.560;2022-12-18T04:02:03;60.22;;;27.15;;
56730;SDS011;42613;47.424;8.560;2022-12-18T04:04:31;53.42;;;24.35;;
56730;SDS011;42613;47.424;8.560;2022-12-18T04:06:59;55.03;;;26.52;;
56730;SDS011;42613;47.424;8.560;2022-12-18T04:09:26;65.90;;;28.08;;
56730;SDS011;42613;47.424;8.560;2022-12-18T04:11:53;57.78;;;27.48;;
56730;SDS011;42613;47.424;8.560;2022-12-18T04:14:18;53.15;;;26.45;;
56730;SDS011;42613;47.424;8.560;2022-12-18T04:16:43;62.92;;;28.42;;
56730;SDS011;42613;47.424;8.560;2022-12-18T04:19:09;55.20;;;27.05;;
56730;SDS011;42613;47.424;8.560;2022-12-18T04:21:34;53.05;;;24.67;;
56730;SDS011;42613;47.424;8.560;2022-12-18T04:24:00;60.35;;;27.55;;
56730;SDS011;42613;47.424;8.560;2022-12-18T04:26:25;55.78;;;27.25;;
56730;SDS011;42613;47.424;8.560;2022-12-18T04:28:50;60.88;;;26.48;;
56730;SDS011;42613;47.424;8.560;2022-12-18T04:31:16;56.90;;;25.38;;
56730;SDS011;42613;47.424;8.560;2022-12-18T04:33:41;51.25;;;24.88;;
56730;SDS011;42613;47.424;8.560;2022-12-18T04:36:07;49.28;;;23.83;;
56730;SDS011;42613;47.424;8.560;2022-12-18T04:38:32;55.45;;;25.35;;
56730;SDS011;42613;47.424;8.560;2022-12-18T04:40:58;53.55;;;24.95;;
56730;SDS011;42613;47.424;8.560;2022-12-18T04:43:23;59.72;;;26.05;;
56730;SDS011;42613;47.424;8.560;2022-12-18T04:45:48;52.00;;;24.70;;
56730;SDS011;42613;47.424;8.560;2022-12-18T04:48:13;56.30;;;26.30;;
56730;SDS011;42613;47.424;8.560;2022-12-18T04:50:39;56.08;;;23.63;;
56730;SDS011;42613;47.424;8.560;2022-12-18T04:53:04;54.05;;;23.73;;
56730;SDS011;42613;47.424;8.560;2022-12-18T04:55:29;56.58;;;23.75;;
56730;SDS011;42613;47.424;8.560;2022-12-18T04:57:55;47.45;;;22.50;;
56730;SDS011;42613;47.424;8.560;2022-12-18T05:00:21;49.10;;;23.73;;
56730;SDS011;42613;47.424;8.560;2022-12-18T05:02:47;49.53;;;24.27;;
56730;SDS011;42613;47.424;8.560;2022-12-18T05:05:12;55.65;;;22.85;;
56730;SDS011;42613;47.424;8.560;2022-12-18T05:07:38;51.92;;;24.23;;
56730;SDS011;42613;47.424;8.560;2022-12-18T05:10:03;46.35;;;22.30;;
56730;SDS011;42613;47.424;8.560;2022-12-18T05:12:32;51.38;;;23.52;;
56730;SDS011;42613;47.424;8.560;2022-12-18T05:14:57;48.33;;;23.48;;
56730;SDS011;42613;47.424;8.560;2022-12-18T05:17:23;53.67;;;23.50;;
56730;SDS011;42613;47.424;8.560;2022-12-18T05:19:48;51.17;;;23.10;;
56730;SDS011;42613;47.424;8.560;2022-12-18T05:22:13;47.47;;;22.55;;
56730;SDS011;42613;47.424;8.560;2022-12-18T05:24:39;48.47;;;22.73;;
56730;SDS011;42613;47.424;8.560;2022-12-18T05:27:04;49.55;;;23.27;;
56730;SDS011;42613;47.424;8.560;2022-12-18T05:29:29;48.35;;;23.75;;
56730;SDS011;42613;47.424;8.560;2022-12-18T05:31:55;49.65;;;22.05;;
56730;SDS011;42613;47.424;8.560;2022-12-18T05:34:20;54.95;;;25.80;;
56730;SDS011;42613;47.424;8.560;2022-12-18T05:36:45;55.28;;;24.20;;
56730;SDS011;42613;47.424;8.560;2022-12-18T05:39:11;55.60;;;24.58;;
56730;SDS011;42613;47.424;8.560;2022-12-18T05:41:36;45.47;;;21.67;;
56730;SDS011;42613;47.424;8.560;2022-12-18T05:44:02;51.28;;;24.42;;
56730;SDS011;42613;47.424;8.560;2022-12-18T05:46:27;51.63;;;23.48;;
56730;SDS011;42613;47.424;8.560;2022-12-18T05:48:52;51.63;;;22.38;;
56730;SDS011;42613;47.424;8.560;2022-12-18T05:51:19;56.70;;;23.50;;
56730;SDS011;42613;47.424;8.560;2022-12-18T05:53:46;52.60;;;24.40;;
56730;SDS011;42613;47.424;8.560;2022-12-18T05:56:12;48.75;;;21.10;;
56730;SDS011;42613;47.424;8.560;2022-12-18T05:58:39;51.60;;;23.67;;
56730;SDS011;42613;47.424;8.560;2022-12-18T06:01:09;45.95;;;22.30;;
56730;SDS011;42613;47.424;8.560;2022-12-18T06:03:39;50.60;;;22.95;;
56730;SDS011;42613;47.424;8.560;2022-12-18T06:06:12;52.03;;;22.08;;
56730;SDS011;42613;47.424;8.560;2022-12-18T06:08:40;50.58;;;22.20;;
56730;SDS011;42613;47.424;8.560;2022-12-18T06:11:06;46.28;;;21.77;;
56730;SDS011;42613;47.424;8.560;2022-12-18T06:13:31;52.72;;;23.67;;
56730;SDS011;42613;47.424;8.560;2022-12-18T06:15:56;45.88;;;22.73;;
56730;SDS011;42613;47.424;8.560;2022-12-18T06:18:22;51.53;;;23.25;;
56730;SDS011;42613;47.424;8.560;2022-12-18T06:20:54;47.45;;;23.95;;
56730;SDS011;42613;47.424;8.560;2022-12-18T06:23:23;47.15;;;23.10;;
56730;SDS011;42613;47.424;8.560;2022-12-18T06:25:49;58.10;;;23.63;;
56730;SDS011;42613;47.424;8.560;2022-12-18T06:28:14;56.05;;;25.20;;
56730;SDS011;42613;47.424;8.560;2022-12-18T06:30:42;51.33;;;23.27;;
56730;SDS011;42613;47.424;8.560;2022-12-18T06:33:08;49.45;;;23.55;;
56730;SDS011;42613;47.424;8.560;2022-12-18T06:35:33;52.13;;;22.90;;
56730;SDS011;42613;47.424;8.560;2022-12-18T06:38:00;46.25;;;22.45;;
56730;SDS011;42613;47.424;8.560;2022-12-18T06:40:26;48.20;;;22.65;;
56730;SDS011;42613;47.424;8.560;2022-12-18T06:42:51;51.22;;;21.67;;
56730;SDS011;42613;47.424;8.560;2022-12-18T06:45:17;57.53;;;23.60;;
56730;SDS011;42613;47.424;8.560;2022-12-18T06:47:42;50.95;;;24.17;;
56730;SDS011;42613;47.424;8.560;2022-12-18T06:50:08;48.45;;;22.20;;
56730;SDS011;42613;47.424;8.560;2022-12-18T06:52:33;49.92;;;20.88;;
56730;SDS011;42613;47.424;8.560;2022-12-18T06:54:59;52.72;;;21.85;;
56730;SDS011;42613;47.424;8.560;2022-12-18T06:57:24;46.97;;;21.95;;
56730;SDS011;42613;47.424;8.560;2022-12-18T06:59:49;50.53;;;22.25;;
56730;SDS011;42613;47.424;8.560;2022-12-18T07:02:15;50.90;;;22.83;;
56730;SDS011;42613;47.424;8.560;2022-12-18T07:04:40;57.22;;;23.20;;
56730;SDS011;42613;47.424;8.560;2022-12-18T07:07:05;43.53;;;21.33;;
56730;SDS011;42613;47.424;8.560;2022-12-18T07:09:31;47.95;;;20.25;;
56730;SDS011;42613;47.424;8.560;2022-12-18T07:11:56;43.22;;;20.90;;
56730;SDS011;42613;47.424;8.560;2022-12-18T07:14:21;46.05;;;22.35;;
56730;SDS011;42613;47.424;8.560;2022-12-18T07:16:47;54.35;;;23.65;;
56730;SDS011;42613;47.424;8.560;2022-12-18T07:19:12;49.33;;;23.30;;
56730;SDS011;42613;47.424;8.560;2022-12-18T07:21:37;51.45;;;21.35;;
56730;SDS011;42613;47.424;8.560;2022-12-18T07:24:03;45.13;;;21.80;;
56730;SDS011;42613;47.424;8.560;2022-12-18T07:26:29;48.88;;;22.92;;
56730;SDS011;42613;47.424;8.560;2022-12-18T07:28:55;50.17;;;23.77;;
56730;SDS011;42613;47.424;8.560;2022-12-18T07:31:22;53.25;;;23.65;;
56730;SDS011;42613;47.424;8.560;2022-12-18T07:33:49;42.45;;;20.52;;
56730;SDS011;42613;47.424;8.560;2022-12-18T07:36:15;46.70;;;20.77;;
56730;SDS011;42613;47.424;8.560;2022-12-18T07:38:41;42.72;;;21.55;;
56730;SDS011;42613;47.424;8.560;2022-12-18T07:41:08;46.10;;;21.08;;
56730;SDS011;42613;47.424;8.560;2022-12-18T07:43:35;46.05;;;21.60;;
56730;SDS011;42613;47.424;8.560;2022-12-18T07:46:01;44.00;;;21.05;;
56730;SDS011;42613;47.424;8.560;2022-12-18T07:48:27;48.20;;;21.38;;
56730;SDS011;42613;47.424;8.560;2022-12-18T07:50:53;45.53;;;21.40;;
56730;SDS011;42613;47.424;8.560;2022-12-18T07:53:18;49.83;;;20.85;;
56730;SDS011;42613;47.424;8.560;2022-12-18T07:55:44;44.20;;;21.90;;
56730;SDS011;42613;47.424;8.560;2022-12-18T07:58:09;45.00;;;22.10;;
56730;SDS011;42613;47.424;8.560;2022-12-18T08:00:35;47.75;;;23.48;;
56730;SDS011;42613;47.424;8.560;2022-12-18T08:03:00;45.22;;;20.45;;
56730;SDS011;42613;47.424;8.560;2022-12-18T08:05:26;47.05;;;23.00;;
56730;SDS011;42613;47.424;8.560;2022-12-18T08:07:52;45.72;;;22.25;;
56730;SDS011;42613;47.424;8.560;2022-12-18T08:10:18;41.83;;;19.58;;
56730;SDS011;42613;47.424;8.560;2022-12-18T08:12:44;41.55;;;20.83;;
56730;SDS011;42613;47.424;8.560;2022-12-18T08:15:10;39.55;;;19.75;;
56730;SDS011;42613;47.424;8.560;2022-12-18T08:17:35;40.33;;;20.02;;
56730;SDS011;42613;47.424;8.560;2022-12-18T08:20:00;44.15;;;20.27;;
56730;SDS011;42613;47.424;8.560;2022-12-18T08:22:26;40.72;;;21.20;;
56730;SDS011;42613;47.424;8.560;2022-12-18T08:24:51;48.50;;;21.83;;
56730;SDS011;42613;47.424;8.560;2022-12-18T08:27:17;49.60;;;22.52;;
56730;SDS011;42613;47.424;8.560;2022-12-18T08:29:42;44.55;;;21.38;;
56730;SDS011;42613;47.424;8.560;2022-12-18T08:32:07;40.95;;;19.83;;
56730;SDS011;42613;47.424;8.560;2022-12-18T08:34:33;40.63;;;19.67;;
56730;SDS011;42613;47.424;8.560;2022-12-18T08:36:59;40.92;;;21.05;;
56730;SDS011;42613;47.424;8.560;2022-12-18T08:39:24;39.90;;;20.83;;
56730;SDS011;42613;47.424;8.560;2022-12-18T08:41:49;43.30;;;20.35;;
56730;SDS011;42613;47.424;8.560;2022-12-18T08:44:38;49.10;;;21.52;;
56730;SDS011;42613;47.424;8.560;2022-12-18T08:47:04;39.45;;;19.35;;
56730;SDS011;42613;47.424;8.560;2022-12-18T08:49:30;46.25;;;20.85;;
56730;SDS011;42613;47.424;8.560;2022-12-18T08:51:56;47.25;;;20.98;;
56730;SDS011;42613;47.424;8.560;2022-12-18T08:54:27;45.95;;;21.90;;
56730;SDS011;42613;47.424;8.560;2022-12-18T08:57:07;46.28;;;22.52;;
56730;SDS011;42613;47.424;8.560;2022-12-18T08:59:35;44.20;;;20.15;;
56730;SDS011;42613;47.424;8.560;2022-12-18T09:02:33;48.85;;;22.42;;
56730;SDS011;42613;47.424;8.560;2022-12-18T09:05:11;45.75;;;22.02;;
56730;SDS011;42613;47.424;8.560;2022-12-18T09:07:45;45.33;;;21.50;;
56730;SDS011;42613;47.424;8.560;2022-12-18T09:10:24;45.60;;;20.23;;
56730;SDS011;42613;47.424;8.560;2022-12-18T09:12:49;41.38;;;19.67;;
56730;SDS011;42613;47.424;8.560;2022-12-18T09:15:17;46.58;;;22.77;;
56730;SDS011;42613;47.424;8.560;2022-12-18T09:17:48;42.85;;;21.50;;
56730;SDS011;42613;47.424;8.560;2022-12-18T09:20:17;45.55;;;20.42;;
56730;SDS011;42613;47.424;8.560;2022-12-18T09:22:43;52.00;;;23.10;;
56730;SDS011;42613;47.424;8.560;2022-12-18T09:25:20;45.83;;;21.17;;
56730;SDS011;42613;47.424;8.560;2022-12-18T09:27:46;38.42;;;19.05;;
56730;SDS011;42613;47.424;8.560;2022-12-18T09:30:12;45.90;;;21.35;;
56730;SDS011;42613;47.424;8.560;2022-12-18T09:32:43;40.13;;;20.15;;
56730;SDS011;42613;47.424;8.560;2022-12-18T09:35:09;41.83;;;21.67;;
56730;SDS011;42613;47.424;8.560;2022-12-18T09:37:34;44.28;;;20.58;;
56730;SDS011;42613;47.424;8.560;2022-12-18T09:40:03;38.08;;;19.65;;
56730;SDS011;42613;47.424;8.560;2022-12-18T09:42:29;41.15;;;17.75;;
56730;SDS011;42613;47.424;8.560;2022-12-18T09:44:55;37.63;;;19.30;;
56730;SDS011;42613;47.424;8.560;2022-12-18T09:50:04;50.50;;;20.73;;
56730;SDS011;42613;47.424;8.560;2022-12-18T09:52:42;43.35;;;19.70;;
56730;SDS011;42613;47.424;8.560;2022-12-18T09:57:47;37.97;;;19.05;;
56730;SDS011;42613;47.424;8.560;2022-12-18T10:00:19;45.05;;;20.77;;
56730;SDS011;42613;47.424;8.560;2022-12-18T10:02:48;41.75;;;18.13;;
56730;SDS011;42613;47.424;8.560;2022-12-18T10:05:17;38.78;;;19.17;;
56730;SDS011;42613;47.424;8.560;2022-12-18T10:08:11;46.42;;;20.30;;
56730;SDS011;42613;47.424;8.560;2022-12-18T10:10:53;49.00;;;20.27;;
56730;SDS011;42613;47.424;8.560;2022-12-18T10:13:37;37.38;;;18.13;;
56730;SDS011;42613;47.424;8.560;2022-12-18T10:25:51;37.40;;;19.15;;
56730;SDS011;42613;47.424;8.560;2022-12-18T10:28:24;49.25;;;21.80;;
56730;SDS011;42613;47.424;8.560;2022-12-18T10:30:52;50.17;;;20.92;;
56730;SDS011;42613;47.424;8.560;2022-12-18T10:33:22;40.92;;;20.50;;
56730;SDS011;42613;47.424;8.560;2022-12-18T10:35:52;39.47;;;18.75;;
56730;SDS011;42613;47.424;8.560;2022-12-18T10:46:55;40.47;;;18.75;;
56730;SDS011;42613;47.424;8.560;2022-12-18T10:49:32;45.85;;;20.88;;
56730;SDS011;42613;47.424;8.560;2022-12-18T10:52:14;49.58;;;21.65;;
56730;SDS011;42613;47.424;8.560;2022-12-18T10:54:52;48.25;;;23.00;;
56730;SDS011;42613;47.424;8.560;2022-12-18T11:02:43;44.88;;;21.70;;
56730;SDS011;42613;47.424;8.560;2022-12-18T11:05:29;52.08;;;23.75;;
56730;SDS011;42613;47.424;8.560;2022-12-18T11:07:59;43.65;;;20.58;;
56730;SDS011;42613;47.424;8.560;2022-12-18T11:10:32;42.35;;;20.92;;
56730;SDS011;42613;47.424;8.560;2022-12-18T11:13:10;48.00;;;21.33;;
56730;SDS011;42613;47.424;8.560;2022-12-18T11:15:41;39.35;;;18.52;;
56730;SDS011;42613;47.424;8.560;2022-12-18T11:18:14;46.75;;;20.92;;
56730;SDS011;42613;47.424;8.560;2022-12-18T11:20:54;48.97;;;20.17;;
56730;SDS011;42613;47.424;8.560;2022-12-18T11:23:22;47.75;;;19.92;;
56730;SDS011;42613;47.424;8.560;2022-12-18T11:25:56;40.15;;;18.45;;
56730;SDS011;42613;47.424;8.560;2022-12-18T11:28:44;42.95;;;20.17;;
56730;SDS011;42613;47.424;8.560;2022-12-18T11:51:14;54.33;;;22.63;;
56730;SDS011;42613;47.424;8.560;2022-12-18T12:00:32;58.10;;;22.30;;
56730;SDS011;42613;47.424;8.560;2022-12-18T12:03:59;48.25;;;20.45;;
56730;SDS011;42613;47.424;8.560;2022-12-18T12:21:55;39.20;;;20.02;;
56730;SDS011;42613;47.424;8.560;2022-12-18T12:36:58;48.85;;;22.13;;
56730;SDS011;42613;47.424;8.560;2022-12-18T12:39:35;44.30;;;21.75;;
56730;SDS011;42613;47.424;8.560;2022-12-18T12:42:10;47.33;;;20.50;;
56730;SDS011;42613;47.424;8.560;2022-12-18T12:45:13;42.55;;;21.05;;
56730;SDS011;42613;47.424;8.560;2022-12-18T12:47:46;43.30;;;21.33;;
56730;SDS011;42613;47.424;8.560;2022-12-18T12:50:16;46.10;;;23.08;;
56730;SDS011;42613;47.424;8.560;2022-12-18T12:52:52;60.85;;;23.40;;
56730;SDS011;42613;47.424;8.560;2022-12-18T12:55:23;54.45;;;22.35;;
56730;SDS011;42613;47.424;8.560;2022-12-18T13:00:27;45.97;;;21.75;;
56730;SDS011;42613;47.424;8.560;2022-12-18T13:03:04;39.15;;;20.77;;
56730;SDS011;42613;47.424;8.560;2022-12-18T13:08:24;51.65;;;21.27;;
56730;SDS011;42613;47.424;8.560;2022-12-18T13:10:59;45.67;;;20.92;;
56730;SDS011;42613;47.424;8.560;2022-12-18T13:13:53;43.97;;;19.38;;
56730;SDS011;42613;47.424;8.560;2022-12-18T13:16:23;46.80;;;21.33;;
56730;SDS011;42613;47.424;8.560;2022-12-18T13:18:52;49.70;;;20.30;;
56730;SDS011;42613;47.424;8.560;2022-12-18T13:21:23;44.92;;;21.40;;
56730;SDS011;42613;47.424;8.560;2022-12-18T13:23:53;41.03;;;20.38;;
56730;SDS011;42613;47.424;8.560;2022-12-18T13:28:50;46.17;;;20.42;;
56730;SDS011;42613;47.424;8.560;2022-12-18T13:36:51;48.75;;;20.40;;
56730;SDS011;42613;47.424;8.560;2022-12-18T13:41:43;47.40;;;20.38;;
56730;SDS011;42613;47.424;8.560;2022-12-18T13:44:24;46.47;;;21.55;;
56730;SDS011;42613;47.424;8.560;2022-12-18T13:46:50;50.58;;;21.35;;
56730;SDS011;42613;47.424;8.560;2022-12-18T13:49:24;40.60;;;20.92;;
56730;SDS011;42613;47.424;8.560;2022-12-18T13:51:56;45.53;;;19.88;;
56730;SDS011;42613;47.424;8.560;2022-12-18T13:57:05;45.28;;;21.70;;
56730;SDS011;42613;47.424;8.560;2022-12-18T13:59:57;44.50;;;20.30;;
56730;SDS011;42613;47.424;8.560;2022-12-18T14:02:24;48.75;;;22.33;;
56730;SDS011;42613;47.424;8.560;2022-12-18T14:04:54;41.40;;;21.60;;
56730;SDS011;42613;47.424;8.560;2022-12-18T14:09:51;46.05;;;20.40;;
56730;SDS011;42613;47.424;8.560;2022-12-18T14:12:22;46.67;;;20.48;;
56730;SDS011;42613;47.424;8.560;2022-12-18T14:17:49;40.20;;;20.33;;
56730;SDS011;42613;47.424;8.560;2022-12-18T14:20:19;46.60;;;19.73;;
56730;SDS011;42613;47.424;8.560;2022-12-18T14:22:55;40.88;;;20.73;;
56730;SDS011;42613;47.424;8.560;2022-12-18T14:25:22;42.38;;;20.13;;
56730;SDS011;42613;47.424;8.560;2022-12-18T14:27:50;41.90;;;21.30;;
56730;SDS011;42613;47.424;8.560;2022-12-18T14:30:44;44.22;;;19.55;;
56730;SDS011;42613;47.424;8.560;2022-12-18T14:33:15;42.28;;;20.80;;
56730;SDS011;42613;47.424;8.560;2022-12-18T14:35:56;43.85;;;21.05;;
56730;SDS011;42613;47.424;8.560;2022-12-18T14:39:12;43.33;;;19.33;;
56730;SDS011;42613;47.424;8.560;2022-12-18T14:41:53;43.22;;;19.48;;
56730;SDS011;42613;47.424;8.560;2022-12-18T14:48:21;33.35;;;16.95;;
56730;SDS011;42613;47.424;8.560;2022-12-18T14:54:14;46.03;;;19.65;;
56730;SDS011;42613;47.424;8.560;2022-12-18T14:56:44;38.53;;;18.30;;
56730;SDS011;42613;47.424;8.560;2022-12-18T14:59:13;42.38;;;20.35;;
56730;SDS011;42613;47.424;8.560;2022-12-18T15:01:47;47.28;;;21.52;;
56730;SDS011;42613;47.424;8.560;2022-12-18T15:04:30;48.03;;;20.35;;
56730;SDS011;42613;47.424;8.560;2022-12-18T15:07:04;37.80;;;18.45;;
56730;SDS011;42613;47.424;8.560;2022-12-18T15:09:36;39.90;;;18.00;;
56730;SDS011;42613;47.424;8.560;2022-12-18T15:12:15;38.40;;;17.80;;
56730;SDS011;42613;47.424;8.560;2022-12-18T15:17:59;40.47;;;18.20;;
56730;SDS011;42613;47.424;8.560;2022-12-18T15:20:25;42.80;;;19.40;;
56730;SDS011;42613;47.424;8.560;2022-12-18T15:22:56;32.47;;;16.90;;
56730;SDS011;42613;47.424;8.560;2022-12-18T15:28:12;30.50;;;16.98;;
56730;SDS011;42613;47.424;8.560;2022-12-18T15:30:59;36.60;;;16.77;;
56730;SDS011;42613;47.424;8.560;2022-12-18T15:33:29;41.25;;;18.00;;
56730;SDS011;42613;47.424;8.560;2022-12-18T15:36:10;35.25;;;17.92;;
56730;SDS011;42613;47.424;8.560;2022-12-18T15:38:47;37.10;;;17.88;;
56730;SDS011;42613;47.424;8.560;2022-12-18T15:41:57;36.83;;;17.73;;
56730;SDS011;42613;47.424;8.560;2022-12-18T15:48:21;35.22;;;16.55;;
56730;SDS011;42613;47.424;8.560;2022-12-18T15:50:48;41.15;;;18.83;;
56730;SDS011;42613;47.424;8.560;2022-12-18T15:53:17;38.05;;;17.92;;
56730;SDS011;42613;47.424;8.560;2022-12-18T15:55:43;40.50;;;18.27;;
56730;SDS011;42613;47.424;8.560;2022-12-18T15:58:27;37.13;;;18.30;;
56730;SDS011;42613;47.424;8.560;2022-12-18T16:00:52;43.45;;;17.65;;
56730;SDS011;42613;47.424;8.560;2022-12-18T16:03:21;38.20;;;18.70;;
56730;SDS011;42613;47.424;8.560;2022-12-18T16:05:46;38.97;;;18.73;;
56730;SDS011;42613;47.424;8.560;2022-12-18T16:08:12;41.75;;;19.58;;
56730;SDS011;42613;47.424;8.560;2022-12-18T16:10:37;41.03;;;18.08;;
56730;SDS011;42613;47.424;8.560;2022-12-18T16:13:02;39.22;;;18.00;;
56730;SDS011;42613;47.424;8.560;2022-12-18T16:15:28;42.50;;;18.83;;
56730;SDS011;42613;47.424;8.560;2022-12-18T16:17:53;37.75;;;17.50;;
56730;SDS011;42613;47.424;8.560;2022-12-18T16:20:20;43.45;;;19.83;;
56730;SDS011;42613;47.424;8.560;2022-12-18T16:22:47;38.42;;;16.75;;
56730;SDS011;42613;47.424;8.560;2022-12-18T16:25:16;38.65;;;18.15;;
56730;SDS011;42613;47.424;8.560;2022-12-18T16:27:45;40.58;;;18.25;;
56730;SDS011;42613;47.424;8.560;2022-12-18T16:30:15;42.20;;;19.50;;
56730;SDS011;42613;47.424;8.560;2022-12-18T16:32:42;41.95;;;19.55;;
56730;SDS011;42613;47.424;8.560;2022-12-18T16:35:11;40.97;;;18.73;;
56730;SDS011;42613;47.424;8.560;2022-12-18T16:37:38;41.47;;;17.63;;
56730;SDS011;42613;47.424;8.560;2022-12-18T16:40:05;42.15;;;19.23;;
56730;SDS011;42613;47.424;8.560;2022-12-18T16:42:34;40.85;;;18.30;;
56730;SDS011;42613;47.424;8.560;2022-12-18T16:45:01;51.97;;;19.70;;
56730;SDS011;42613;47.424;8.560;2022-12-18T16:47:26;38.70;;;19.23;;
56730;SDS011;42613;47.424;8.560;2022-12-18T16:49:51;43.17;;;19.83;;
56730;SDS011;42613;47.424;8.560;2022-12-18T16:52:17;38.38;;;17.98;;
56730;SDS011;42613;47.424;8.560;2022-12-18T16:54:43;37.25;;;17.52;;
56730;SDS011;42613;47.424;8.560;2022-12-18T16:57:09;48.72;;;20.95;;
56730;SDS011;42613;47.424;8.560;2022-12-18T16:59:37;44.33;;;18.88;;
56730;SDS011;42613;47.424;8.560;2022-12-18T17:02:03;41.38;;;19.58;;